createdAt,value
2023-04-05T00:04:06.711Z,2.13
2023-04-05T00:09:08.382Z,2.03
2023-04-05T00:14:11.420Z,1.94
2023-04-05T00:19:13.652Z,2.09
2023-04-05T00:24:15.455Z,1.97
2023-04-05T00:29:18.483Z,2.20
2023-04-05T00:34:20.097Z,1.73
2023-04-05T00:39:21.833Z,1.58
2023-04-05T00:44:24.986Z,1.75
2023-04-05T00:49:26.965Z,1.75
2023-04-05T00:54:29.453Z,1.36
2023-04-05T00:59:32.579Z,1.71
2023-04-05T01:04:36.169Z,2.12
2023-04-05T01:09:45.825Z,1.51
2023-04-05T01:14:51.100Z,1.91
2023-04-05T01:19:54.213Z,1.89
2023-04-05T01:25:15.909Z,1.68
2023-04-05T01:30:22.798Z,1.91
2023-04-05T01:35:31.845Z,1.58
2023-04-05T01:40:35.978Z,1.84
2023-04-05T01:45:38.981Z,1.75
2023-04-05T01:50:40.775Z,1.37
2023-04-05T01:55:42.576Z,1.15
2023-04-05T02:00:45.700Z,1.50
2023-04-05T02:05:47.406Z,1.73
2023-04-05T02:10:49.109Z,1.33
2023-04-05T02:15:52.543Z,1.68
2023-04-05T02:21:00.734Z,1.34
2023-04-05T02:26:02.775Z,1.38
2023-04-05T02:31:10.196Z,1.21
2023-04-05T02:36:13.122Z,1.16
2023-04-05T02:41:14.789Z,1.34
2023-04-05T02:46:17.816Z,1.30
2023-04-05T02:51:19.698Z,1.19
2023-04-05T02:56:21.385Z,1.03
2023-04-05T03:01:25.130Z,0.83
2023-04-05T03:06:26.874Z,1.20
2023-04-05T03:11:28.597Z,1.14
2023-04-05T03:16:31.777Z,0.96
2023-04-05T03:21:33.443Z,1.08
2023-04-05T03:26:35.134Z,1.06
2023-04-05T03:31:38.281Z,1.27
2023-04-05T03:36:40.031Z,0.91
2023-04-05T03:41:42.184Z,0.88
2023-04-05T03:46:45.237Z,0.73
2023-04-05T03:51:47.105Z,0.72
2023-04-05T03:56:48.887Z,0.69
2023-04-05T04:01:53.113Z,0.74
2023-04-05T04:06:54.908Z,0.84
2023-04-05T04:11:56.535Z,0.87
2023-04-05T04:16:59.690Z,0.45
2023-04-05T04:22:01.315Z,0.92
2023-04-05T04:27:03.139Z,0.90
2023-04-05T04:32:06.190Z,0.84
2023-04-05T04:37:07.948Z,0.58
2023-04-05T04:42:09.620Z,0.62
2023-04-05T04:47:13.737Z,0.69
2023-04-05T04:52:16.609Z,0.64
2023-04-05T04:57:18.231Z,0.33
2023-04-05T05:02:24.888Z,0.28
2023-04-05T05:07:26.534Z,0.55
2023-04-05T05:12:28.312Z,0.77
2023-04-05T05:17:31.339Z,0.85
2023-04-05T05:22:33.179Z,0.50
2023-04-05T05:27:34.860Z,0.08
2023-04-05T05:32:37.936Z,0.13
2023-04-05T05:37:40.174Z,3.14
2023-04-05T05:42:41.940Z,4.87
2023-04-05T05:47:44.933Z,6.52
2023-04-05T05:52:46.623Z,7.38
2023-04-05T05:57:48.281Z,8.48
2023-04-05T06:02:51.416Z,9.41
2023-04-05T06:07:53.155Z,10.04
2023-04-05T06:12:54.767Z,10.40
2023-04-05T06:17:57.942Z,10.70
2023-04-05T06:22:59.688Z,11.42
2023-04-05T06:28:02.808Z,11.84
2023-04-05T06:38:23.233Z,9.63
2023-04-05T06:43:25.329Z,10.75
2023-04-05T06:48:28.913Z,12.51
2023-04-05T06:53:32.297Z,13.61
2023-04-05T06:58:36.357Z,14.13
2023-04-05T07:03:38.094Z,14.44
2023-04-05T07:08:41.134Z,14.88
2023-04-05T07:13:42.820Z,15.48
2023-04-05T07:18:44.478Z,15.73
2023-04-05T07:23:47.628Z,16.32
2023-04-05T07:28:49.307Z,16.52
2023-04-05T07:33:51.169Z,15.91
2023-04-05T07:38:54.395Z,16.15
2023-04-05T07:43:56.088Z,13.37
2023-04-05T07:48:58.027Z,10.42
2023-04-05T07:54:01.939Z,9.55
2023-04-05T07:59:04.907Z,10.79
2023-04-05T08:04:06.637Z,9.78
2023-04-05T08:09:10.695Z,8.92
2023-04-05T08:14:13.012Z,9.05
2023-04-05T08:19:15.658Z,8.87
2023-04-05T08:24:18.953Z,9.07
2023-04-05T08:29:21.089Z,10.03
2023-04-05T08:34:22.947Z,8.73
2023-04-05T08:39:26.357Z,8.95
2023-04-05T08:44:32.216Z,9.46
2023-04-05T08:49:33.947Z,9.53
2023-04-05T08:54:37.086Z,10.11
2023-04-05T09:10:29.433Z,10.25
2023-04-05T09:15:31.608Z,10.21
2023-04-05T09:20:33.336Z,10.29
2023-04-05T09:25:38.647Z,9.78
2023-04-05T09:30:45.485Z,10.05
2023-04-05T09:35:50.308Z,10.56
2023-04-05T09:40:53.390Z,11.35
2023-04-05T09:45:55.332Z,11.46
2023-04-05T09:51:12.541Z,11.29
2023-04-05T09:56:16.513Z,11.03
2023-04-05T10:01:19.089Z,10.34
2023-04-05T10:06:21.173Z,10.99
2023-04-05T10:11:24.540Z,10.70
2023-04-05T10:16:28.641Z,11.08
2023-04-05T10:21:33.008Z,10.92
2023-04-05T10:26:45.272Z,10.71
2023-04-05T10:31:54.097Z,11.20
2023-04-05T10:36:58.774Z,11.35
2023-04-05T10:42:10.846Z,11.22
2023-04-05T10:47:16.526Z,11.19
2023-04-05T10:52:18.236Z,11.17
2023-04-05T10:57:22.923Z,11.02
2023-04-05T11:02:25.046Z,11.30
2023-04-05T11:07:42.067Z,11.06
2023-04-05T11:13:07.803Z,11.04
2023-04-05T11:18:11.396Z,10.94
2023-04-05T11:23:14.870Z,10.95
2023-04-05T11:28:29.862Z,10.79
2023-04-05T11:33:39.417Z,10.59
2023-04-05T11:38:43.839Z,10.60
2023-04-05T11:43:47.156Z,10.53
2023-04-05T11:48:49.512Z,10.58
2023-04-05T11:53:51.180Z,10.91
2023-04-05T11:58:58.259Z,10.95
2023-04-05T12:04:00.186Z,10.76
2023-04-05T12:09:06.813Z,10.54
2023-04-05T12:14:09.890Z,10.24
2023-04-05T12:19:11.613Z,10.49
2023-04-05T12:24:16.274Z,10.52
2023-04-05T12:29:19.337Z,10.51
2023-04-05T12:34:24.640Z,10.31
2023-04-05T12:39:29.404Z,10.18
2023-04-05T12:44:33.057Z,10.34
2023-04-05T12:49:37.602Z,10.23
2023-04-05T12:54:39.365Z,10.27
2023-04-05T12:59:42.468Z,10.41
2023-04-05T13:04:44.137Z,10.43
2023-04-05T13:09:45.874Z,10.51
2023-04-05T13:14:48.942Z,10.54
2023-04-05T13:19:50.666Z,10.46
2023-04-05T13:24:52.338Z,10.22
2023-04-05T13:29:55.349Z,10.32
2023-04-05T13:34:57.045Z,10.35
2023-04-05T13:39:58.731Z,10.49
2023-04-05T13:45:01.837Z,10.55
2023-04-05T13:50:04.324Z,10.36
2023-04-05T13:55:06.774Z,10.40
2023-04-05T14:00:11.572Z,10.39
2023-04-05T14:05:13.367Z,10.20
2023-04-05T14:10:15.350Z,10.41
2023-04-05T14:15:18.500Z,10.38
2023-04-05T14:20:20.271Z,10.69
2023-04-05T14:25:22.086Z,10.69
2023-04-05T14:30:25.574Z,10.68
2023-04-05T14:35:27.381Z,10.67
2023-04-05T14:40:29.126Z,10.77
2023-04-05T14:45:32.258Z,10.60
2023-04-05T14:50:34.052Z,10.68
2023-04-05T14:55:35.737Z,10.83
2023-04-05T15:00:39.711Z,10.73
2023-04-05T15:05:41.742Z,10.60
2023-04-05T15:10:43.831Z,10.70
2023-04-05T15:15:47.304Z,10.39
2023-04-05T15:20:49.460Z,10.35
2023-04-05T15:25:51.205Z,10.37
2023-04-05T15:30:54.335Z,10.27
2023-04-05T15:35:56.178Z,10.23
2023-04-05T15:40:57.980Z,10.41
2023-04-05T15:46:01.072Z,10.18
2023-04-05T15:51:03.039Z,10.20
2023-04-05T15:56:05.295Z,10.25
2023-04-05T16:01:08.400Z,10.31
2023-04-05T16:06:10.197Z,10.21
2023-04-05T16:11:12.014Z,10.11
2023-04-05T16:16:20.582Z,10.06
2023-04-05T16:21:30.499Z,9.97
2023-04-05T16:26:32.406Z,9.82
2023-04-05T16:31:35.664Z,9.66
2023-04-05T16:36:37.444Z,9.65
2023-04-05T16:41:39.264Z,9.54
2023-04-05T16:46:42.408Z,9.49
2023-04-05T16:51:44.124Z,9.62
2023-04-05T16:56:45.965Z,9.43
2023-04-05T17:01:54.464Z,9.28
2023-04-05T17:06:56.654Z,9.38
2023-04-05T17:11:58.411Z,9.41
2023-04-05T17:17:01.514Z,9.24
2023-04-05T17:22:03.278Z,9.03
2023-04-05T17:27:05.073Z,8.90
2023-04-05T17:32:09.447Z,8.84
2023-04-05T17:37:11.174Z,8.52
2023-04-05T17:42:12.984Z,8.74
2023-04-05T17:47:16.220Z,8.90
2023-04-05T17:52:17.978Z,8.98
2023-04-05T17:57:19.842Z,8.81
2023-04-05T18:02:23.498Z,8.71
2023-04-05T18:07:27.968Z,8.49
2023-04-05T18:12:29.749Z,8.40
2023-04-05T18:17:34.045Z,8.24
2023-04-05T18:22:35.853Z,7.99
2023-04-05T18:27:37.861Z,7.88
2023-04-05T18:32:41.095Z,7.59
2023-04-05T18:37:42.874Z,7.64
2023-04-05T18:42:44.574Z,7.34
2023-04-05T18:47:47.728Z,7.31
2023-04-05T18:52:49.462Z,7.23
2023-04-05T18:57:51.146Z,6.97
2023-04-05T19:02:54.388Z,6.72
2023-04-05T19:07:56.193Z,6.67
2023-04-05T19:12:57.891Z,6.44
2023-04-05T19:18:01.097Z,6.34
2023-04-05T19:23:02.930Z,6.25
2023-04-05T19:28:04.780Z,6.15
2023-04-05T19:33:07.924Z,6.04
2023-04-05T19:38:09.829Z,5.99
2023-04-05T19:43:12.581Z,5.83
2023-04-05T19:48:40.287Z,5.73
2023-04-05T19:53:44.144Z,5.64
2023-04-05T19:58:47.687Z,5.52
2023-04-05T20:03:50.987Z,5.51
2023-04-05T20:08:59.724Z,5.51
2023-04-05T20:14:01.603Z,6.08
2023-04-05T20:19:06.944Z,6.39
2023-04-05T20:24:14.225Z,6.38
2023-04-05T20:29:20.684Z,6.30
2023-04-05T20:34:28.490Z,6.33
2023-04-05T20:39:30.776Z,6.11
2023-04-05T20:44:32.712Z,5.99
2023-04-05T20:49:35.849Z,6.04
2023-04-05T20:54:37.747Z,5.90
2023-04-05T20:59:39.581Z,5.83
2023-04-05T21:04:42.860Z,5.82
2023-04-05T21:09:44.707Z,5.63
2023-04-05T21:14:46.405Z,5.64
2023-04-05T21:19:49.543Z,5.61
2023-04-05T21:24:51.269Z,5.46
2023-04-05T21:29:53.140Z,5.41
2023-04-05T21:34:56.284Z,5.17
2023-04-05T21:39:58.026Z,5.26
2023-04-05T21:44:59.743Z,5.22
2023-04-05T21:50:03.060Z,5.21
2023-04-05T21:55:05.518Z,4.93
2023-04-05T22:00:08.537Z,4.43
2023-04-05T22:05:13.060Z,4.65
2023-04-05T22:10:17.516Z,5.26
2023-04-05T22:15:19.277Z,4.88
2023-04-05T22:20:22.404Z,4.76
2023-04-05T22:25:24.241Z,4.44
2023-04-05T22:30:28.034Z,4.26
2023-04-05T22:35:31.364Z,4.50
2023-04-05T22:40:33.122Z,4.36
2023-04-05T22:45:34.967Z,4.04
2023-04-05T22:50:38.248Z,4.18
2023-04-05T22:55:40.160Z,4.33
2023-04-05T23:00:42.128Z,3.95
2023-04-05T23:05:45.259Z,4.12
2023-04-05T23:10:47.857Z,4.05
2023-04-05T23:15:49.617Z,3.64
2023-04-05T23:20:52.740Z,3.99
2023-04-05T23:25:54.424Z,3.66
2023-04-05T23:30:56.138Z,3.71
2023-04-05T23:35:59.383Z,3.28
2023-04-05T23:41:01.142Z,3.72
2023-04-05T23:46:02.870Z,3.48
2023-04-05T23:51:06.106Z,3.56
2023-04-05T23:56:07.877Z,3.59
